»·PEaware :: N314JF KSNA-KSNA

N314JF :: KSNA-KSNA

FLIGHT INFORMATION

Flight Status: Arrived
Operator: Privately registered:
United States
More flights under this callsign
Pilot: Jean Francois S. (616)
Aircraft: CESSNA 206 STATIONAIR
(C206)
More flights by this aircraft type
Origin: KSNA John Wayne-Orange Co
United States
Destination: KSNA John Wayne-Orange Co
United States
More flights between these airports :: More routes between these airports
Route: +
File this flight plan on PilotEdge
Remarks:
Altitude:
(Current/Filed)
0ft
Speed:
(Current/Filed)
0kts
Departed: 17-Apr-19 11:29 AM
Arrived: 17-Apr-19 12:23 PM
Distance/Time
Traveled:
0nm/0:54
Distance/Time
To Go:
Arrived

Flight Plot

Page will automatically refresh every two minutes.


Map Options




Map Legend


Flown Route
Filed Route
Departure Airport
Arrival Airport
Navaid (VOR, NDB)
Fix

Horizontal Profiles

Position Reports

Time Latitude Longitude Heading Altitude Ground
Speed
17-Apr-19 11:26 33.676944 -117.865281 27 59ft 15kts
17-Apr-19 11:27 33.679845 -117.863485 352 59ft 6kts
17-Apr-19 11:28 33.680056 -117.863826 297 59ft 11kts
17-Apr-19 11:29 33.670394 -117.870150 207 539ft 107kts
17-Apr-19 11:30 33.653314 -117.887695 232 1633ft 135kts
17-Apr-19 11:31 33.635999 -117.914428 232 2493ft 153kts
17-Apr-19 11:32 33.612466 -117.950513 231 2401ft 176kts
17-Apr-19 11:33 33.585921 -117.991079 231 2400ft 177kts
17-Apr-19 11:34 33.561968 -118.027536 231 2400ft 178kts
17-Apr-19 11:35 33.568424 -118.061588 352 2750ft 158kts
17-Apr-19 11:36 33.595672 -118.050512 22 3578ft 144kts
17-Apr-19 11:37 33.624183 -118.029217 32 3503ft 171kts
17-Apr-19 11:38 33.666479 -117.996653 32 3500ft 174kts
17-Apr-19 11:39 33.699336 -117.971466 31 3499ft 174kts
17-Apr-19 11:40 33.726435 -117.950764 31 3499ft 174kts
17-Apr-19 11:41 33.754177 -117.929635 31 3499ft 174kts
17-Apr-19 11:41 33.779790 -117.910187 31 3499ft 174kts
17-Apr-19 11:43 33.812770 -117.885228 31 3497ft 174kts
17-Apr-19 11:44 33.836104 -117.867625 31 3495ft 174kts
17-Apr-19 11:45 33.861242 -117.848713 31 3494ft 174kts
17-Apr-19 11:45 33.875801 -117.824408 91 3492ft 176kts
17-Apr-19 11:46 33.873160 -117.784191 93 3494ft 177kts
17-Apr-19 11:47 33.870182 -117.740531 93 3495ft 177kts
17-Apr-19 11:49 33.866472 -117.686846 93 3497ft 178kts
17-Apr-19 11:50 33.891413 -117.669227 318 3495ft 171kts
17-Apr-19 11:50 33.888288 -117.700977 230 3499ft 177kts
17-Apr-19 11:51 33.867067 -117.730305 229 3496ft 178kts
17-Apr-19 11:52 33.847128 -117.757730 229 3496ft 178kts
17-Apr-19 11:53 33.820331 -117.775775 207 3127ft 178kts
17-Apr-19 11:54 33.791267 -117.794071 208 2522ft 175kts
17-Apr-19 11:55 33.764883 -117.811077 208 1943ft 174kts
17-Apr-19 11:56 33.736930 -117.829136 208 1322ft 174kts
17-Apr-19 11:57 33.711244 -117.845739 208 753ft 174kts
17-Apr-19 11:58 33.685793 -117.862131 207 940ft 156kts
17-Apr-19 11:59 33.665517 -117.874808 207 2079ft 132kts
17-Apr-19 12:00 33.642701 -117.888870 207 3097ft 145kts
17-Apr-19 12:01 33.609117 -117.909388 207 3111ft 182kts
17-Apr-19 12:02 33.600201 -117.943138 319 3537ft 162kts
17-Apr-19 12:03 33.628919 -117.948167 358 3560ft 170kts
17-Apr-19 12:04 33.659311 -117.949049 358 3511ft 174kts
17-Apr-19 12:05 33.686335 -117.949876 358 3509ft 174kts
17-Apr-19 12:06 33.712532 -117.950716 358 3509ft 176kts
17-Apr-19 12:07 33.740385 -117.951648 358 3509ft 176kts
17-Apr-19 12:08 33.772340 -117.940157 30 3508ft 177kts
17-Apr-19 12:09 33.808183 -117.914421 30 3506ft 177kts
17-Apr-19 12:10 33.839701 -117.891619 30 3497ft 179kts
17-Apr-19 12:11 33.858248 -117.866356 87 3492ft 184kts
17-Apr-19 12:12 33.857820 -117.828382 90 3494ft 184kts
17-Apr-19 12:13 33.857733 -117.784485 88 3495ft 184kts
17-Apr-19 12:14 33.854601 -117.742153 126 3489ft 184kts
17-Apr-19 12:15 33.827821 -117.740271 227 3053ft 179kts
17-Apr-19 12:16 33.811783 -117.770737 242 2997ft 166kts
17-Apr-19 12:17 33.791840 -117.794439 205 2544ft 182kts
17-Apr-19 12:18 33.762403 -117.812568 207 1894ft 188kts
17-Apr-19 12:19 33.729014 -117.834153 208 1147ft 189kts
17-Apr-19 12:20 33.699261 -117.853431 208 484ft 137kts
17-Apr-19 12:21 33.683588 -117.863793 209 168ft 70kts
17-Apr-19 12:22 33.675756 -117.869100 266 59ft 19kts
17-Apr-19 12:23 33.676303 -117.870498 310 59ft 12kts
17-Apr-19 12:24 33.676222 -117.870736 206 59ft 0kts
17-Apr-19 12:25 33.676222 -117.870736 206 59ft 0kts
17-Apr-19 12:26 33.676222 -117.870736 206 59ft 0kts
17-Apr-19 12:27 33.676222 -117.870736 206 59ft 0kts
17-Apr-19 12:28 33.675550 -117.871097 204 59ft 49kts

Navigation Log

Ident Type
Flight plan parsing failed, navigation log unavailable